sensor_id;sensor_type;location;lat;lon;timestamp;P1;durP1;ratioP1;P2;durP2;ratioP2
31818;SDS011;18384;48.860;9.188;2022-11-15T00:00:55;7.45;;;3.72;;
31818;SDS011;18384;48.860;9.188;2022-11-15T00:03:25;7.50;;;3.40;;
31818;SDS011;18384;48.860;9.188;2022-11-15T00:06:01;7.15;;;3.80;;
31818;SDS011;18384;48.860;9.188;2022-11-15T00:08:30;5.65;;;3.10;;
31818;SDS011;18384;48.860;9.188;2022-11-15T00:10:58;7.40;;;3.45;;
31818;SDS011;18384;48.860;9.188;2022-11-15T00:13:26;6.10;;;3.45;;
31818;SDS011;18384;48.860;9.188;2022-11-15T00:15:53;7.60;;;4.12;;
31818;SDS011;18384;48.860;9.188;2022-11-15T00:18:23;7.72;;;2.97;;
31818;SDS011;18384;48.860;9.188;2022-11-15T00:23:16;7.07;;;3.20;;
31818;SDS011;18384;48.860;9.188;2022-11-15T00:25:42;5.50;;;3.17;;
31818;SDS011;18384;48.860;9.188;2022-11-15T00:28:08;6.45;;;3.72;;
31818;SDS011;18384;48.860;9.188;2022-11-15T00:30:34;8.32;;;3.12;;
31818;SDS011;18384;48.860;9.188;2022-11-15T00:33:03;6.05;;;2.97;;
31818;SDS011;18384;48.860;9.188;2022-11-15T00:35:31;9.48;;;3.28;;
31818;SDS011;18384;48.860;9.188;2022-11-15T00:37:59;7.03;;;3.35;;
31818;SDS011;18384;48.860;9.188;2022-11-15T00:40:26;7.82;;;3.00;;
31818;SDS011;18384;48.860;9.188;2022-11-15T00:42:52;5.40;;;3.35;;
31818;SDS011;18384;48.860;9.188;2022-11-15T00:45:18;9.10;;;3.85;;
31818;SDS011;18384;48.860;9.188;2022-11-15T00:47:44;4.57;;;3.05;;
31818;SDS011;18384;48.860;9.188;2022-11-15T00:50:11;8.77;;;3.62;;
31818;SDS011;18384;48.860;9.188;2022-11-15T00:52:38;6.47;;;3.05;;
31818;SDS011;18384;48.860;9.188;2022-11-15T00:55:04;10.35;;;4.03;;
31818;SDS011;18384;48.860;9.188;2022-11-15T00:57:31;8.95;;;3.37;;
31818;SDS011;18384;48.860;9.188;2022-11-15T00:59:57;7.62;;;3.25;;
31818;SDS011;18384;48.860;9.188;2022-11-15T01:02:23;6.93;;;3.25;;
31818;SDS011;18384;48.860;9.188;2022-11-15T01:04:49;7.03;;;3.33;;
31818;SDS011;18384;48.860;9.188;2022-11-15T01:07:15;7.20;;;3.60;;
31818;SDS011;18384;48.860;9.188;2022-11-15T01:09:41;6.07;;;3.30;;
31818;SDS011;18384;48.860;9.188;2022-11-15T01:12:07;5.65;;;3.05;;
31818;SDS011;18384;48.860;9.188;2022-11-15T01:14:33;7.82;;;3.00;;
31818;SDS011;18384;48.860;9.188;2022-11-15T01:17:00;7.78;;;3.60;;
31818;SDS011;18384;48.860;9.188;2022-11-15T01:19:26;10.95;;;3.50;;
31818;SDS011;18384;48.860;9.188;2022-11-15T01:21:52;12.73;;;3.60;;
31818;SDS011;18384;48.860;9.188;2022-11-15T01:24:18;8.68;;;3.00;;
31818;SDS011;18384;48.860;9.188;2022-11-15T01:26:44;6.95;;;3.30;;
31818;SDS011;18384;48.860;9.188;2022-11-15T01:29:10;5.70;;;3.03;;
31818;SDS011;18384;48.860;9.188;2022-11-15T01:31:36;7.03;;;3.33;;
31818;SDS011;18384;48.860;9.188;2022-11-15T01:34:03;9.77;;;3.55;;
31818;SDS011;18384;48.860;9.188;2022-11-15T01:36:29;6.22;;;3.03;;
31818;SDS011;18384;48.860;9.188;2022-11-15T01:38:58;7.28;;;3.30;;
31818;SDS011;18384;48.860;9.188;2022-11-15T01:41:26;8.43;;;3.45;;
31818;SDS011;18384;48.860;9.188;2022-11-15T01:43:56;7.53;;;3.17;;
31818;SDS011;18384;48.860;9.188;2022-11-15T01:47:30;7.10;;;3.25;;
31818;SDS011;18384;48.860;9.188;2022-11-15T01:50:02;7.12;;;3.30;;
31818;SDS011;18384;48.860;9.188;2022-11-15T01:52:33;6.60;;;3.20;;
31818;SDS011;18384;48.860;9.188;2022-11-15T01:58:09;6.32;;;3.17;;
31818;SDS011;18384;48.860;9.188;2022-11-15T02:00:35;6.62;;;3.05;;
31818;SDS011;18384;48.860;9.188;2022-11-15T02:03:02;6.82;;;3.08;;
31818;SDS011;18384;48.860;9.188;2022-11-15T02:07:55;5.55;;;3.10;;
31818;SDS011;18384;48.860;9.188;2022-11-15T02:10:23;8.55;;;3.12;;
31818;SDS011;18384;48.860;9.188;2022-11-15T02:12:50;8.13;;;2.80;;
31818;SDS011;18384;48.860;9.188;2022-11-15T02:15:17;5.45;;;2.97;;
31818;SDS011;18384;48.860;9.188;2022-11-15T02:17:48;6.78;;;3.20;;
31818;SDS011;18384;48.860;9.188;2022-11-15T02:25:45;6.85;;;2.78;;
31818;SDS011;18384;48.860;9.188;2022-11-15T02:32:02;6.00;;;2.90;;
31818;SDS011;18384;48.860;9.188;2022-11-15T02:34:58;6.93;;;3.50;;
31818;SDS011;18384;48.860;9.188;2022-11-15T02:40:16;5.60;;;3.33;;
31818;SDS011;18384;48.860;9.188;2022-11-15T02:43:08;6.47;;;3.28;;
31818;SDS011;18384;48.860;9.188;2022-11-15T02:46:04;9.63;;;3.80;;
31818;SDS011;18384;48.860;9.188;2022-11-15T02:49:54;7.53;;;4.55;;
31818;SDS011;18384;48.860;9.188;2022-11-15T02:52:25;10.77;;;3.37;;
31818;SDS011;18384;48.860;9.188;2022-11-15T02:54:59;12.10;;;4.32;;
31818;SDS011;18384;48.860;9.188;2022-11-15T02:57:35;8.52;;;3.40;;
31818;SDS011;18384;48.860;9.188;2022-11-15T03:00:18;6.35;;;2.87;;
31818;SDS011;18384;48.860;9.188;2022-11-15T03:02:56;7.82;;;3.12;;
31818;SDS011;18384;48.860;9.188;2022-11-15T03:05:52;8.18;;;3.28;;
31818;SDS011;18384;48.860;9.188;2022-11-15T03:08:40;5.40;;;3.03;;
31818;SDS011;18384;48.860;9.188;2022-11-15T03:11:38;7.90;;;3.30;;
31818;SDS011;18384;48.860;9.188;2022-11-15T03:14:22;8.65;;;3.10;;
31818;SDS011;18384;48.860;9.188;2022-11-15T03:18:32;6.90;;;3.10;;
31818;SDS011;18384;48.860;9.188;2022-11-15T03:21:04;12.90;;;3.67;;
31818;SDS011;18384;48.860;9.188;2022-11-15T03:23:34;7.25;;;3.55;;
31818;SDS011;18384;48.860;9.188;2022-11-15T03:26:03;9.18;;;3.53;;
31818;SDS011;18384;48.860;9.188;2022-11-15T03:28:36;5.97;;;3.45;;
31818;SDS011;18384;48.860;9.188;2022-11-15T03:31:19;11.10;;;4.35;;
31818;SDS011;18384;48.860;9.188;2022-11-15T03:34:07;11.52;;;4.75;;
31818;SDS011;18384;48.860;9.188;2022-11-15T03:36:44;10.48;;;5.05;;
31818;SDS011;18384;48.860;9.188;2022-11-15T03:39:12;10.60;;;5.10;;
31818;SDS011;18384;48.860;9.188;2022-11-15T03:41:40;17.25;;;5.32;;
31818;SDS011;18384;48.860;9.188;2022-11-15T03:48:13;11.00;;;4.85;;
31818;SDS011;18384;48.860;9.188;2022-11-15T03:50:45;12.73;;;5.37;;
31818;SDS011;18384;48.860;9.188;2022-11-15T03:53:12;10.73;;;4.87;;
31818;SDS011;18384;48.860;9.188;2022-11-15T03:55:39;8.93;;;5.20;;
31818;SDS011;18384;48.860;9.188;2022-11-15T04:00:31;12.52;;;5.43;;
31818;SDS011;18384;48.860;9.188;2022-11-15T04:05:24;13.48;;;5.15;;
31818;SDS011;18384;48.860;9.188;2022-11-15T04:07:50;14.27;;;5.22;;
31818;SDS011;18384;48.860;9.188;2022-11-15T04:10:16;9.40;;;5.05;;
31818;SDS011;18384;48.860;9.188;2022-11-15T04:12:44;12.82;;;5.03;;
31818;SDS011;18384;48.860;9.188;2022-11-15T04:15:15;12.57;;;5.65;;
31818;SDS011;18384;48.860;9.188;2022-11-15T04:17:51;16.42;;;5.37;;
31818;SDS011;18384;48.860;9.188;2022-11-15T04:20:25;12.35;;;5.53;;
31818;SDS011;18384;48.860;9.188;2022-11-15T04:23:20;13.85;;;5.75;;
31818;SDS011;18384;48.860;9.188;2022-11-15T04:26:10;12.95;;;5.10;;
31818;SDS011;18384;48.860;9.188;2022-11-15T04:28:40;10.77;;;4.97;;
31818;SDS011;18384;48.860;9.188;2022-11-15T04:31:24;6.93;;;4.45;;
31818;SDS011;18384;48.860;9.188;2022-11-15T04:33:51;10.05;;;4.60;;
31818;SDS011;18384;48.860;9.188;2022-11-15T04:36:17;8.82;;;4.40;;
31818;SDS011;18384;48.860;9.188;2022-11-15T04:39:02;11.07;;;4.72;;
31818;SDS011;18384;48.860;9.188;2022-11-15T04:41:29;10.02;;;4.70;;
31818;SDS011;18384;48.860;9.188;2022-11-15T04:43:55;9.73;;;4.90;;
31818;SDS011;18384;48.860;9.188;2022-11-15T04:46:22;9.75;;;4.87;;
31818;SDS011;18384;48.860;9.188;2022-11-15T04:48:49;11.88;;;5.25;;
31818;SDS011;18384;48.860;9.188;2022-11-15T04:51:18;12.75;;;4.87;;
31818;SDS011;18384;48.860;9.188;2022-11-15T04:56:10;8.55;;;4.82;;
31818;SDS011;18384;48.860;9.188;2022-11-15T04:58:37;10.05;;;5.00;;
31818;SDS011;18384;48.860;9.188;2022-11-15T05:03:39;8.98;;;4.87;;
31818;SDS011;18384;48.860;9.188;2022-11-15T05:06:25;11.35;;;5.40;;
31818;SDS011;18384;48.860;9.188;2022-11-15T05:08:51;9.90;;;4.87;;
31818;SDS011;18384;48.860;9.188;2022-11-15T05:11:18;11.55;;;5.03;;
31818;SDS011;18384;48.860;9.188;2022-11-15T05:13:45;13.38;;;4.30;;
31818;SDS011;18384;48.860;9.188;2022-11-15T05:18:37;10.93;;;4.60;;
31818;SDS011;18384;48.860;9.188;2022-11-15T05:21:08;7.43;;;4.30;;
31818;SDS011;18384;48.860;9.188;2022-11-15T05:23:40;7.32;;;4.35;;
31818;SDS011;18384;48.860;9.188;2022-11-15T05:26:06;7.82;;;4.15;;
31818;SDS011;18384;48.860;9.188;2022-11-15T05:28:34;8.52;;;4.07;;
31818;SDS011;18384;48.860;9.188;2022-11-15T05:31:12;13.77;;;6.15;;
31818;SDS011;18384;48.860;9.188;2022-11-15T05:33:40;13.45;;;4.60;;
31818;SDS011;18384;48.860;9.188;2022-11-15T05:36:22;6.85;;;4.62;;
31818;SDS011;18384;48.860;9.188;2022-11-15T05:39:02;10.43;;;4.35;;
31818;SDS011;18384;48.860;9.188;2022-11-15T05:41:32;10.48;;;4.25;;
31818;SDS011;18384;48.860;9.188;2022-11-15T05:44:04;8.98;;;4.22;;
31818;SDS011;18384;48.860;9.188;2022-11-15T05:46:34;9.23;;;4.25;;
31818;SDS011;18384;48.860;9.188;2022-11-15T05:49:02;7.22;;;4.30;;
31818;SDS011;18384;48.860;9.188;2022-11-15T05:51:32;10.35;;;5.50;;
31818;SDS011;18384;48.860;9.188;2022-11-15T05:53:59;20.60;;;5.00;;
31818;SDS011;18384;48.860;9.188;2022-11-15T05:56:26;9.93;;;4.37;;
31818;SDS011;18384;48.860;9.188;2022-11-15T05:58:53;13.02;;;4.87;;
31818;SDS011;18384;48.860;9.188;2022-11-15T06:01:22;12.50;;;5.20;;
31818;SDS011;18384;48.860;9.188;2022-11-15T06:03:50;10.57;;;5.93;;
31818;SDS011;18384;48.860;9.188;2022-11-15T06:06:16;16.87;;;7.55;;
31818;SDS011;18384;48.860;9.188;2022-11-15T06:08:42;9.43;;;5.87;;
31818;SDS011;18384;48.860;9.188;2022-11-15T06:11:09;20.42;;;6.68;;
31818;SDS011;18384;48.860;9.188;2022-11-15T06:13:35;10.88;;;5.50;;
31818;SDS011;18384;48.860;9.188;2022-11-15T06:16:01;18.98;;;5.37;;
31818;SDS011;18384;48.860;9.188;2022-11-15T06:18:27;16.05;;;6.05;;
31818;SDS011;18384;48.860;9.188;2022-11-15T06:20:58;12.43;;;5.72;;
31818;SDS011;18384;48.860;9.188;2022-11-15T06:23:25;15.43;;;5.82;;
31818;SDS011;18384;48.860;9.188;2022-11-15T06:28:17;12.93;;;6.07;;
31818;SDS011;18384;48.860;9.188;2022-11-15T06:30:43;10.55;;;5.40;;
31818;SDS011;18384;48.860;9.188;2022-11-15T06:33:09;11.30;;;5.25;;
31818;SDS011;18384;48.860;9.188;2022-11-15T06:35:36;13.95;;;5.50;;
31818;SDS011;18384;48.860;9.188;2022-11-15T06:38:03;11.40;;;6.05;;
31818;SDS011;18384;48.860;9.188;2022-11-15T06:40:37;17.70;;;5.53;;
31818;SDS011;18384;48.860;9.188;2022-11-15T06:43:04;12.27;;;5.57;;
31818;SDS011;18384;48.860;9.188;2022-11-15T06:45:31;10.80;;;5.07;;
31818;SDS011;18384;48.860;9.188;2022-11-15T06:47:57;8.80;;;5.15;;
31818;SDS011;18384;48.860;9.188;2022-11-15T06:50:24;10.02;;;4.97;;
31818;SDS011;18384;48.860;9.188;2022-11-15T06:52:50;9.15;;;5.30;;
31818;SDS011;18384;48.860;9.188;2022-11-15T06:55:16;14.98;;;5.32;;
31818;SDS011;18384;48.860;9.188;2022-11-15T06:57:52;15.35;;;5.00;;
31818;SDS011;18384;48.860;9.188;2022-11-15T07:00:18;11.82;;;4.65;;
31818;SDS011;18384;48.860;9.188;2022-11-15T07:02:48;11.63;;;5.03;;
31818;SDS011;18384;48.860;9.188;2022-11-15T07:05:14;11.95;;;5.53;;
31818;SDS011;18384;48.860;9.188;2022-11-15T07:07:41;9.07;;;4.87;;
31818;SDS011;18384;48.860;9.188;2022-11-15T07:10:07;12.48;;;4.85;;
31818;SDS011;18384;48.860;9.188;2022-11-15T07:12:34;16.00;;;5.25;;
31818;SDS011;18384;48.860;9.188;2022-11-15T07:17:26;9.23;;;5.75;;
31818;SDS011;18384;48.860;9.188;2022-11-15T07:19:52;8.63;;;5.32;;
31818;SDS011;18384;48.860;9.188;2022-11-15T07:22:19;12.70;;;5.55;;
31818;SDS011;18384;48.860;9.188;2022-11-15T07:24:45;17.02;;;4.75;;
31818;SDS011;18384;48.860;9.188;2022-11-15T07:27:11;9.25;;;4.45;;
31818;SDS011;18384;48.860;9.188;2022-11-15T07:29:37;14.38;;;5.12;;
31818;SDS011;18384;48.860;9.188;2022-11-15T07:32:03;10.85;;;4.40;;
31818;SDS011;18384;48.860;9.188;2022-11-15T07:34:29;9.68;;;5.18;;
31818;SDS011;18384;48.860;9.188;2022-11-15T07:36:55;14.43;;;5.37;;
31818;SDS011;18384;48.860;9.188;2022-11-15T07:39:21;17.65;;;5.07;;
31818;SDS011;18384;48.860;9.188;2022-11-15T07:41:47;8.18;;;4.12;;
31818;SDS011;18384;48.860;9.188;2022-11-15T07:44:14;7.53;;;4.00;;
31818;SDS011;18384;48.860;9.188;2022-11-15T07:46:40;8.35;;;3.80;;
31818;SDS011;18384;48.860;9.188;2022-11-15T07:49:06;8.70;;;3.42;;
31818;SDS011;18384;48.860;9.188;2022-11-15T07:51:32;6.85;;;3.42;;
31818;SDS011;18384;48.860;9.188;2022-11-15T07:53:59;8.50;;;3.60;;
31818;SDS011;18384;48.860;9.188;2022-11-15T07:56:25;9.25;;;4.00;;
31818;SDS011;18384;48.860;9.188;2022-11-15T07:58:51;8.40;;;3.62;;
31818;SDS011;18384;48.860;9.188;2022-11-15T08:01:17;9.70;;;4.12;;
31818;SDS011;18384;48.860;9.188;2022-11-15T08:03:43;8.75;;;4.90;;
31818;SDS011;18384;48.860;9.188;2022-11-15T08:06:09;8.32;;;3.92;;
31818;SDS011;18384;48.860;9.188;2022-11-15T08:08:35;11.02;;;4.53;;
31818;SDS011;18384;48.860;9.188;2022-11-15T08:11:01;12.50;;;5.12;;
31818;SDS011;18384;48.860;9.188;2022-11-15T08:13:27;11.50;;;5.10;;
31818;SDS011;18384;48.860;9.188;2022-11-15T08:15:57;13.75;;;5.40;;
31818;SDS011;18384;48.860;9.188;2022-11-15T08:18:24;10.90;;;4.37;;
31818;SDS011;18384;48.860;9.188;2022-11-15T08:20:50;11.77;;;4.70;;
31818;SDS011;18384;48.860;9.188;2022-11-15T08:23:17;20.85;;;6.25;;
31818;SDS011;18384;48.860;9.188;2022-11-15T08:25:43;11.93;;;4.93;;
31818;SDS011;18384;48.860;9.188;2022-11-15T08:28:09;11.00;;;4.53;;
31818;SDS011;18384;48.860;9.188;2022-11-15T08:30:39;14.82;;;4.75;;
31818;SDS011;18384;48.860;9.188;2022-11-15T08:33:10;7.75;;;3.45;;
31818;SDS011;18384;48.860;9.188;2022-11-15T08:35:39;9.75;;;4.40;;
31818;SDS011;18384;48.860;9.188;2022-11-15T08:38:09;14.87;;;4.97;;
31818;SDS011;18384;48.860;9.188;2022-11-15T08:40:36;11.95;;;4.55;;
31818;SDS011;18384;48.860;9.188;2022-11-15T08:43:02;10.57;;;4.75;;
31818;SDS011;18384;48.860;9.188;2022-11-15T08:45:29;11.80;;;5.25;;
31818;SDS011;18384;48.860;9.188;2022-11-15T08:47:56;11.02;;;4.82;;
31818;SDS011;18384;48.860;9.188;2022-11-15T08:50:23;13.20;;;4.53;;
31818;SDS011;18384;48.860;9.188;2022-11-15T08:52:49;11.95;;;4.80;;
31818;SDS011;18384;48.860;9.188;2022-11-15T08:55:15;16.33;;;4.62;;
31818;SDS011;18384;48.860;9.188;2022-11-15T08:57:41;9.65;;;5.03;;
31818;SDS011;18384;48.860;9.188;2022-11-15T09:00:07;8.60;;;5.03;;
31818;SDS011;18384;48.860;9.188;2022-11-15T09:02:37;11.48;;;5.10;;
31818;SDS011;18384;48.860;9.188;2022-11-15T09:05:05;11.35;;;4.32;;
31818;SDS011;18384;48.860;9.188;2022-11-15T09:07:32;11.55;;;4.65;;
31818;SDS011;18384;48.860;9.188;2022-11-15T09:09:58;11.18;;;4.70;;
31818;SDS011;18384;48.860;9.188;2022-11-15T09:12:24;9.07;;;4.62;;
31818;SDS011;18384;48.860;9.188;2022-11-15T09:14:50;11.48;;;4.60;;
31818;SDS011;18384;48.860;9.188;2022-11-15T09:17:17;9.65;;;4.20;;
31818;SDS011;18384;48.860;9.188;2022-11-15T09:19:43;12.30;;;4.43;;
31818;SDS011;18384;48.860;9.188;2022-11-15T09:22:09;12.77;;;4.25;;
31818;SDS011;18384;48.860;9.188;2022-11-15T09:24:35;13.38;;;4.35;;
31818;SDS011;18384;48.860;9.188;2022-11-15T09:29:27;11.77;;;3.40;;
31818;SDS011;18384;48.860;9.188;2022-11-15T09:31:53;11.70;;;3.75;;
31818;SDS011;18384;48.860;9.188;2022-11-15T09:34:20;8.60;;;3.75;;
31818;SDS011;18384;48.860;9.188;2022-11-15T09:36:46;8.93;;;3.95;;
31818;SDS011;18384;48.860;9.188;2022-11-15T09:39:12;14.15;;;3.78;;
31818;SDS011;18384;48.860;9.188;2022-11-15T09:52:28;7.15;;;3.20;;
31818;SDS011;18384;48.860;9.188;2022-11-15T09:54:54;9.02;;;3.20;;
31818;SDS011;18384;48.860;9.188;2022-11-15T10:03:48;10.15;;;3.50;;
31818;SDS011;18384;48.860;9.188;2022-11-15T10:06:24;11.27;;;3.30;;
31818;SDS011;18384;48.860;9.188;2022-11-15T10:14:20;6.57;;;2.90;;
31818;SDS011;18384;48.860;9.188;2022-11-15T10:19:59;7.70;;;3.30;;
31818;SDS011;18384;48.860;9.188;2022-11-15T10:22:44;9.02;;;3.50;;
31818;SDS011;18384;48.860;9.188;2022-11-15T10:25:25;5.95;;;3.08;;
31818;SDS011;18384;48.860;9.188;2022-11-15T10:27:55;7.60;;;3.17;;
31818;SDS011;18384;48.860;9.188;2022-11-15T10:30:53;6.75;;;2.97;;
31818;SDS011;18384;48.860;9.188;2022-11-15T10:33:32;8.98;;;3.78;;
31818;SDS011;18384;48.860;9.188;2022-11-15T10:36:17;6.50;;;3.40;;
31818;SDS011;18384;48.860;9.188;2022-11-15T10:38:52;9.93;;;3.50;;
31818;SDS011;18384;48.860;9.188;2022-11-15T10:41:22;9.55;;;3.85;;
31818;SDS011;18384;48.860;9.188;2022-11-15T10:44:03;9.00;;;3.10;;
31818;SDS011;18384;48.860;9.188;2022-11-15T10:46:46;8.25;;;3.70;;
31818;SDS011;18384;48.860;9.188;2022-11-15T10:50:31;9.75;;;3.65;;
31818;SDS011;18384;48.860;9.188;2022-11-15T10:52:58;8.75;;;3.47;;
31818;SDS011;18384;48.860;9.188;2022-11-15T10:55:28;9.40;;;3.22;;
31818;SDS011;18384;48.860;9.188;2022-11-15T10:58:02;7.55;;;3.50;;
31818;SDS011;18384;48.860;9.188;2022-11-15T11:00:44;8.63;;;3.55;;
31818;SDS011;18384;48.860;9.188;2022-11-15T11:03:28;8.73;;;3.72;;
31818;SDS011;18384;48.860;9.188;2022-11-15T11:06:15;12.77;;;4.10;;
31818;SDS011;18384;48.860;9.188;2022-11-15T11:08:59;8.98;;;3.62;;
31818;SDS011;18384;48.860;9.188;2022-11-15T11:11:44;6.95;;;3.97;;
31818;SDS011;18384;48.860;9.188;2022-11-15T11:14:35;9.65;;;3.87;;
31818;SDS011;18384;48.860;9.188;2022-11-15T11:21:49;11.85;;;3.90;;
31818;SDS011;18384;48.860;9.188;2022-11-15T11:33:16;6.20;;;3.12;;
31818;SDS011;18384;48.860;9.188;2022-11-15T11:45:19;8.05;;;3.30;;
31818;SDS011;18384;48.860;9.188;2022-11-15T11:48:48;12.93;;;3.75;;
31818;SDS011;18384;48.860;9.188;2022-11-15T11:51:36;8.95;;;3.42;;
31818;SDS011;18384;48.860;9.188;2022-11-15T11:54:18;8.52;;;4.07;;
31818;SDS011;18384;48.860;9.188;2022-11-15T11:57:41;9.80;;;4.22;;
31818;SDS011;18384;48.860;9.188;2022-11-15T12:05:20;8.02;;;3.28;;
31818;SDS011;18384;48.860;9.188;2022-11-15T12:08:22;15.07;;;4.97;;
31818;SDS011;18384;48.860;9.188;2022-11-15T12:11:29;12.32;;;4.00;;
31818;SDS011;18384;48.860;9.188;2022-11-15T12:14:30;8.93;;;3.30;;
31818;SDS011;18384;48.860;9.188;2022-11-15T12:18:53;10.02;;;3.37;;
31818;SDS011;18384;48.860;9.188;2022-11-15T12:25:57;8.45;;;3.15;;
31818;SDS011;18384;48.860;9.188;2022-11-15T12:31:44;7.18;;;3.40;;
31818;SDS011;18384;48.860;9.188;2022-11-15T12:34:29;8.38;;;3.20;;
31818;SDS011;18384;48.860;9.188;2022-11-15T12:37:32;7.05;;;3.30;;
31818;SDS011;18384;48.860;9.188;2022-11-15T12:43:45;6.97;;;3.08;;
31818;SDS011;18384;48.860;9.188;2022-11-15T12:46:58;6.72;;;2.92;;
31818;SDS011;18384;48.860;9.188;2022-11-15T12:49:48;8.57;;;3.10;;
31818;SDS011;18384;48.860;9.188;2022-11-15T12:52:15;5.55;;;2.67;;
31818;SDS011;18384;48.860;9.188;2022-11-15T12:54:51;8.75;;;2.85;;
31818;SDS011;18384;48.860;9.188;2022-11-15T12:57:27;7.60;;;2.90;;
31818;SDS011;18384;48.860;9.188;2022-11-15T13:00:05;6.95;;;2.67;;
31818;SDS011;18384;48.860;9.188;2022-11-15T13:03:19;6.03;;;2.97;;
31818;SDS011;18384;48.860;9.188;2022-11-15T13:08:38;6.60;;;2.87;;
31818;SDS011;18384;48.860;9.188;2022-11-15T13:18:38;17.95;;;5.85;;
31818;SDS011;18384;48.860;9.188;2022-11-15T13:21:18;17.02;;;3.92;;
31818;SDS011;18384;48.860;9.188;2022-11-15T13:24:10;9.70;;;4.47;;
31818;SDS011;18384;48.860;9.188;2022-11-15T13:26:41;16.23;;;4.85;;
31818;SDS011;18384;48.860;9.188;2022-11-15T13:31:44;11.82;;;4.40;;
31818;SDS011;18384;48.860;9.188;2022-11-15T13:34:30;16.77;;;7.37;;
31818;SDS011;18384;48.860;9.188;2022-11-15T13:36:58;12.25;;;4.35;;
31818;SDS011;18384;48.860;9.188;2022-11-15T13:39:27;10.32;;;4.50;;
31818;SDS011;18384;48.860;9.188;2022-11-15T13:41:56;9.05;;;4.55;;
31818;SDS011;18384;48.860;9.188;2022-11-15T13:44:24;13.13;;;4.75;;
31818;SDS011;18384;48.860;9.188;2022-11-15T13:47:03;15.63;;;4.32;;
31818;SDS011;18384;48.860;9.188;2022-11-15T13:49:38;9.23;;;4.40;;
31818;SDS011;18384;48.860;9.188;2022-11-15T13:52:05;10.85;;;4.95;;
31818;SDS011;18384;48.860;9.188;2022-11-15T13:58:32;11.23;;;4.40;;
31818;SDS011;18384;48.860;9.188;2022-11-15T14:01:03;9.15;;;3.30;;
31818;SDS011;18384;48.860;9.188;2022-11-15T14:03:40;11.95;;;3.85;;
31818;SDS011;18384;48.860;9.188;2022-11-15T14:06:15;10.55;;;5.28;;
31818;SDS011;18384;48.860;9.188;2022-11-15T14:13:03;9.65;;;4.10;;
31818;SDS011;18384;48.860;9.188;2022-11-15T14:15:38;10.45;;;3.55;;
31818;SDS011;18384;48.860;9.188;2022-11-15T14:18:05;7.30;;;3.70;;
31818;SDS011;18384;48.860;9.188;2022-11-15T14:21:08;10.82;;;3.50;;
31818;SDS011;18384;48.860;9.188;2022-11-15T14:23:35;13.25;;;4.25;;
31818;SDS011;18384;48.860;9.188;2022-11-15T14:26:01;10.80;;;4.00;;
31818;SDS011;18384;48.860;9.188;2022-11-15T14:28:28;11.85;;;4.00;;
31818;SDS011;18384;48.860;9.188;2022-11-15T14:31:04;12.25;;;4.10;;
31818;SDS011;18384;48.860;9.188;2022-11-15T14:33:40;14.85;;;3.85;;
31818;SDS011;18384;48.860;9.188;2022-11-15T14:39:06;7.78;;;4.35;;
31818;SDS011;18384;48.860;9.188;2022-11-15T14:41:36;11.23;;;4.90;;
31818;SDS011;18384;48.860;9.188;2022-11-15T14:44:05;17.52;;;5.12;;
31818;SDS011;18384;48.860;9.188;2022-11-15T14:46:36;15.50;;;4.25;;
31818;SDS011;18384;48.860;9.188;2022-11-15T14:49:02;17.27;;;5.18;;
31818;SDS011;18384;48.860;9.188;2022-11-15T14:51:28;12.77;;;4.72;;
31818;SDS011;18384;48.860;9.188;2022-11-15T14:53:54;11.38;;;4.10;;
31818;SDS011;18384;48.860;9.188;2022-11-15T14:56:20;12.57;;;4.75;;
31818;SDS011;18384;48.860;9.188;2022-11-15T14:58:46;13.27;;;4.60;;
31818;SDS011;18384;48.860;9.188;2022-11-15T15:01:17;13.90;;;5.85;;
31818;SDS011;18384;48.860;9.188;2022-11-15T15:06:22;12.70;;;4.87;;
31818;SDS011;18384;48.860;9.188;2022-11-15T15:08:48;12.95;;;5.25;;
31818;SDS011;18384;48.860;9.188;2022-11-15T15:11:29;18.87;;;6.20;;
31818;SDS011;18384;48.860;9.188;2022-11-15T15:13:56;9.98;;;5.22;;
31818;SDS011;18384;48.860;9.188;2022-11-15T15:16:25;12.68;;;5.45;;
31818;SDS011;18384;48.860;9.188;2022-11-15T15:18:52;14.38;;;6.50;;
31818;SDS011;18384;48.860;9.188;2022-11-15T15:21:22;12.93;;;6.20;;
31818;SDS011;18384;48.860;9.188;2022-11-15T15:23:51;13.10;;;5.53;;
31818;SDS011;18384;48.860;9.188;2022-11-15T15:26:19;16.70;;;5.85;;
31818;SDS011;18384;48.860;9.188;2022-11-15T15:28:45;15.77;;;5.95;;
31818;SDS011;18384;48.860;9.188;2022-11-15T15:31:14;17.83;;;6.37;;
31818;SDS011;18384;48.860;9.188;2022-11-15T15:33:40;12.52;;;6.05;;
31818;SDS011;18384;48.860;9.188;2022-11-15T15:36:13;13.65;;;6.10;;
31818;SDS011;18384;48.860;9.188;2022-11-15T15:41:11;14.52;;;6.28;;
31818;SDS011;18384;48.860;9.188;2022-11-15T15:43:40;14.18;;;5.60;;
31818;SDS011;18384;48.860;9.188;2022-11-15T15:46:16;16.30;;;5.57;;
31818;SDS011;18384;48.860;9.188;2022-11-15T15:48:44;13.30;;;6.20;;
31818;SDS011;18384;48.860;9.188;2022-11-15T15:51:11;18.50;;;6.12;;
31818;SDS011;18384;48.860;9.188;2022-11-15T15:53:37;14.95;;;6.00;;
31818;SDS011;18384;48.860;9.188;2022-11-15T15:56:04;16.00;;;6.65;;
31818;SDS011;18384;48.860;9.188;2022-11-15T15:58:33;12.30;;;5.72;;
31818;SDS011;18384;48.860;9.188;2022-11-15T16:00:59;16.95;;;6.30;;
31818;SDS011;18384;48.860;9.188;2022-11-15T16:03:25;14.07;;;6.62;;
31818;SDS011;18384;48.860;9.188;2022-11-15T16:05:52;14.73;;;5.97;;
31818;SDS011;18384;48.860;9.188;2022-11-15T16:08:22;12.13;;;5.70;;
31818;SDS011;18384;48.860;9.188;2022-11-15T16:10:49;12.10;;;5.32;;
31818;SDS011;18384;48.860;9.188;2022-11-15T16:13:16;10.57;;;4.93;;
31818;SDS011;18384;48.860;9.188;2022-11-15T16:15:42;11.02;;;5.20;;
31818;SDS011;18384;48.860;9.188;2022-11-15T16:18:12;8.95;;;4.72;;
31818;SDS011;18384;48.860;9.188;2022-11-15T16:20:42;11.80;;;4.55;;
31818;SDS011;18384;48.860;9.188;2022-11-15T16:23:12;10.00;;;5.15;;
31818;SDS011;18384;48.860;9.188;2022-11-15T16:25:41;10.80;;;4.43;;
31818;SDS011;18384;48.860;9.188;2022-11-15T16:28:17;8.50;;;4.22;;
31818;SDS011;18384;48.860;9.188;2022-11-15T16:31:10;12.25;;;4.65;;
31818;SDS011;18384;48.860;9.188;2022-11-15T16:33:38;7.43;;;4.10;;
31818;SDS011;18384;48.860;9.188;2022-11-15T16:36:16;15.55;;;6.87;;
31818;SDS011;18384;48.860;9.188;2022-11-15T16:38:49;33.80;;;14.50;;
31818;SDS011;18384;48.860;9.188;2022-11-15T16:41:15;32.85;;;14.05;;
31818;SDS011;18384;48.860;9.188;2022-11-15T16:43:44;41.50;;;16.60;;
31818;SDS011;18384;48.860;9.188;2022-11-15T16:46:21;25.00;;;11.38;;
31818;SDS011;18384;48.860;9.188;2022-11-15T16:48:50;18.55;;;7.53;;
31818;SDS011;18384;48.860;9.188;2022-11-15T16:51:19;15.50;;;6.37;;
31818;SDS011;18384;48.860;9.188;2022-11-15T16:53:45;14.68;;;5.30;;
31818;SDS011;18384;48.860;9.188;2022-11-15T16:56:29;10.60;;;5.78;;
31818;SDS011;18384;48.860;9.188;2022-11-15T16:58:56;9.98;;;5.18;;
31818;SDS011;18384;48.860;9.188;2022-11-15T17:01:25;11.12;;;6.00;;
31818;SDS011;18384;48.860;9.188;2022-11-15T17:03:56;18.50;;;5.40;;
31818;SDS011;18384;48.860;9.188;2022-11-15T17:06:23;15.02;;;5.57;;
31818;SDS011;18384;48.860;9.188;2022-11-15T17:08:51;15.80;;;5.75;;
31818;SDS011;18384;48.860;9.188;2022-11-15T17:13:46;14.90;;;6.55;;
31818;SDS011;18384;48.860;9.188;2022-11-15T17:16:20;13.15;;;6.18;;
31818;SDS011;18384;48.860;9.188;2022-11-15T17:18:49;17.90;;;7.12;;
31818;SDS011;18384;48.860;9.188;2022-11-15T17:21:17;16.02;;;6.47;;
31818;SDS011;18384;48.860;9.188;2022-11-15T17:23:47;13.48;;;6.70;;
31818;SDS011;18384;48.860;9.188;2022-11-15T17:26:14;16.67;;;7.25;;
31818;SDS011;18384;48.860;9.188;2022-11-15T17:28:40;21.35;;;7.68;;
31818;SDS011;18384;48.860;9.188;2022-11-15T17:31:11;20.67;;;7.90;;
31818;SDS011;18384;48.860;9.188;2022-11-15T17:33:39;20.65;;;7.10;;